Time;durP1;ratioP1;P1;durP2;ratioP2;P2;SDS_P1;SDS_P2;PMS_P1;PMS_P2;Temp;Humidity;BMP_temperature;BMP_pressure;BME280_temperature;BME280_humidity;BME280_pressure;Samples;Min_cycle;Max_cycle;Signal;HPM_P1;HPM_P2
2022/03/26 00:01:33;;;;;;;114.70;61.58;;;;;;;4.66;100.00;103283.06;6174004;23;20025;-76
2022/03/26 00:04:02;;;;;;;108.63;59.90;;;;;;;4.63;100.00;103279.34;6213017;23;20398;-77
2022/03/26 00:06:32;;;;;;;109.70;61.30;;;;;;;4.60;100.00;103285.28;6228649;23;20023;-74
2022/03/26 00:09:00;;;;;;;105.18;57.65;;;;;;;4.57;100.00;103277.22;6232622;23;20008;-74
2022/03/26 00:11:29;;;;;;;115.10;62.08;;;;;;;4.55;100.00;103281.44;6196871;23;20020;-74
2022/03/26 00:13:58;;;;;;;115.07;63.03;;;;;;;4.52;100.00;103283.88;6165993;23;20016;-74
2022/03/26 00:16:28;;;;;;;105.25;61.33;;;;;;;4.51;100.00;103282.06;6167982;23;20012;-74
2022/03/26 00:18:57;;;;;;;118.90;63.42;;;;;;;4.48;100.00;103279.25;6219357;23;20027;-74
2022/03/26 00:21:25;;;;;;;114.88;65.03;;;;;;;4.45;100.00;103276.44;6218723;23;20016;-74
2022/03/26 00:23:53;;;;;;;113.88;64.50;;;;;;;4.44;100.00;103277.22;6240486;23;20250;-74
2022/03/26 00:26:22;;;;;;;119.15;64.45;;;;;;;4.43;100.00;103270.19;6164417;23;20016;-74
2022/03/26 00:28:52;;;;;;;119.55;65.63;;;;;;;4.41;100.00;103274.41;6138712;23;20035;-75
2022/03/26 00:31:20;;;;;;;123.72;64.65;;;;;;;4.38;100.00;103266.38;6222170;23;20031;-74
2022/03/26 00:33:49;;;;;;;119.05;63.10;;;;;;;4.37;100.00;103277.63;6192811;23;20265;-75
2022/03/26 00:36:17;;;;;;;127.10;65.15;;;;;;;4.35;100.00;103273.97;6195860;23;20020;-74
2022/03/26 00:38:46;;;;;;;119.80;65.13;;;;;;;4.32;100.00;103273.78;6208044;23;20016;-74
2022/03/26 00:41:14;;;;;;;129.40;69.50;;;;;;;4.29;100.00;103278.00;6248718;23;20019;-74
2022/03/26 00:43:43;;;;;;;135.27;69.60;;;;;;;4.29;100.00;103279.69;6202970;23;20353;-73
2022/03/26 00:46:11;;;;;;;136.82;72.55;;;;;;;4.26;100.00;103275.19;6211410;23;20016;-73
2022/03/26 00:48:43;;;;;;;135.00;70.95;;;;;;;4.24;100.00;103276.78;6209132;23;20012;-73
2022/03/26 00:51:11;;;;;;;138.40;72.03;;;;;;;4.23;100.00;103271.44;6212373;23;20024;-73
2022/03/26 00:53:41;;;;;;;140.18;70.85;;;;;;;4.21;100.00;103271.34;6193432;23;20027;-73
2022/03/26 00:56:09;;;;;;;136.18;70.03;;;;;;;4.21;100.00;103273.06;6222365;23;20020;-73
2022/03/26 00:58:39;;;;;;;130.38;67.78;;;;;;;4.20;100.00;103271.25;6235149;23;20016;-73
2022/03/26 01:01:08;;;;;;;116.32;62.97;;;;;;;4.18;100.00;103271.16;6242157;23;20023;-73
2022/03/26 01:03:37;;;;;;;129.88;67.93;;;;;;;4.19;100.00;103270.34;6170095;23;20369;-73
2022/03/26 01:06:07;;;;;;;132.07;69.82;;;;;;;4.19;100.00;103266.81;6223420;23;20031;-73
2022/03/26 01:08:35;;;;;;;138.73;71.28;;;;;;;4.19;100.00;103259.91;6196729;23;20027;-73
2022/03/26 01:11:04;;;;;;;135.38;69.57;;;;;;;4.22;100.00;103256.59;6221135;23;20542;-73
2022/03/26 01:13:34;;;;;;;128.20;68.35;;;;;;;4.24;100.00;103263.72;6221597;23;20027;-73
2022/03/26 01:16:03;;;;;;;144.75;72.53;;;;;;;4.23;100.00;103254.06;6183651;23;20525;-73
2022/03/26 01:18:33;;;;;;;141.85;71.20;;;;;;;4.22;100.00;103249.69;6240049;23;20016;-73
2022/03/26 01:21:03;;;;;;;145.80;73.17;;;;;;;4.20;100.00;103253.88;6187809;23;20020;-73
2022/03/26 01:23:34;;;;;;;146.77;73.82;;;;;;;4.18;100.00;103250.28;6221459;23;20044;-73
2022/03/26 01:26:04;;;;;;;149.30;74.35;;;;;;;4.18;100.00;103249.34;6222100;23;20027;-73
2022/03/26 01:28:33;;;;;;;157.35;77.10;;;;;;;4.18;100.00;103241.50;6222346;23;20024;-73
2022/03/26 01:31:02;;;;;;;149.77;74.05;;;;;;;4.20;100.00;103245.16;6199050;23;20239;-73
2022/03/26 01:33:30;;;;;;;151.55;76.35;;;;;;;4.19;100.00;103244.25;6217878;23;20024;-73
2022/03/26 01:35:59;;;;;;;154.25;76.65;;;;;;;4.18;100.00;103234.63;6247077;23;20246;-73
2022/03/26 01:38:28;;;;;;;157.75;78.07;;;;;;;4.16;100.00;103243.13;6249266;23;20350;-73
2022/03/26 01:40:56;;;;;;;145.57;75.38;;;;;;;4.14;100.00;103240.44;6205249;23;20020;-73
2022/03/26 01:43:24;;;;;;;149.40;74.65;;;;;;;4.10;100.00;103241.00;6196591;23;20016;-73
2022/03/26 01:45:53;;;;;;;154.23;74.78;;;;;;;4.08;100.00;103226.94;6173527;23;21162;-73
2022/03/26 01:48:21;;;;;;;154.45;76.30;;;;;;;4.06;100.00;103229.47;6188636;23;20016;-73
2022/03/26 01:50:50;;;;;;;160.25;77.68;;;;;;;4.03;100.00;103231.88;6208819;23;20134;-73
2022/03/26 01:53:19;;;;;;;157.70;74.30;;;;;;;4.01;100.00;103235.19;6249291;23;20020;-73
2022/03/26 01:55:50;;;;;;;146.20;74.47;;;;;;;3.97;100.00;103228.84;6246677;23;20031;-73
2022/03/26 01:58:19;;;;;;;156.88;74.38;;;;;;;3.95;100.00;103222.63;6217917;23;20062;-73
2022/03/26 02:00:47;;;;;;;135.45;69.43;;;;;;;3.93;100.00;103226.81;6155909;23;20019;-73
2022/03/26 02:03:16;;;;;;;154.70;74.75;;;;;;;3.92;100.00;103224.13;6197401;23;20024;-73
2022/03/26 02:05:44;;;;;;;142.23;72.28;;;;;;;3.89;100.00;103225.72;6247876;23;20024;-73
2022/03/26 02:08:13;;;;;;;139.25;71.75;;;;;;;3.89;100.00;103223.13;6215544;23;20016;-73
2022/03/26 02:10:41;;;;;;;143.70;70.80;;;;;;;3.88;100.00;103226.50;6217691;23;20021;-73
2022/03/26 02:13:11;;;;;;;140.82;71.10;;;;;;;3.86;100.00;103219.38;6214047;23;20218;-74
2022/03/26 02:15:40;;;;;;;132.65;69.47;;;;;;;3.81;100.00;103226.88;6182243;23;20020;-74
2022/03/26 02:18:09;;;;;;;137.98;71.28;;;;;;;3.77;100.00;103221.34;6170964;23;20103;-75
2022/03/26 02:20:38;;;;;;;134.75;68.85;;;;;;;3.74;100.00;103222.03;6188997;23;20020;-73
2022/03/26 02:23:07;;;;;;;140.20;67.22;;;;;;;3.73;100.00;103212.41;6213693;23;20218;-73
2022/03/26 02:25:35;;;;;;;128.15;68.10;;;;;;;3.75;100.00;103220.34;6192926;23;20028;-73
2022/03/26 02:28:04;;;;;;;142.27;70.82;;;;;;;3.74;100.00;103206.38;6214160;23;20072;-73
2022/03/26 02:30:33;;;;;;;143.88;72.03;;;;;;;3.75;100.00;103209.91;6213109;23;20012;-73
2022/03/26 02:33:02;;;;;;;148.68;75.10;;;;;;;3.75;100.00;103210.81;6173063;23;20233;-73
2022/03/26 02:35:31;;;;;;;141.45;72.55;;;;;;;3.76;100.00;103202.16;6153515;23;20024;-73
2022/03/26 02:37:59;;;;;;;144.10;72.50;;;;;;;3.75;100.00;103195.16;6210662;23;20115;-73
2022/03/26 02:40:28;;;;;;;155.55;74.55;;;;;;;3.74;100.00;103193.34;6168061;23;20415;-73
2022/03/26 02:42:56;;;;;;;152.25;73.50;;;;;;;3.76;100.00;103198.66;6164290;23;20023;-75
2022/03/26 02:45:24;;;;;;;152.82;73.03;;;;;;;3.75;100.00;103191.66;6217386;23;20016;-73
2022/03/26 02:47:53;;;;;;;144.18;73.55;;;;;;;3.73;100.00;103194.16;6191229;23;20016;-74
2022/03/26 02:50:22;;;;;;;143.40;71.60;;;;;;;3.71;100.00;103198.38;6179166;23;20016;-73
2022/03/26 02:52:50;;;;;;;149.30;72.30;;;;;;;3.70;100.00;103189.66;6215857;23;20020;-74
2022/03/26 02:55:19;;;;;;;144.82;70.93;;;;;;;3.69;100.00;103194.75;6192044;23;20021;-74
2022/03/26 02:57:47;;;;;;;138.60;70.10;;;;;;;3.67;100.00;103205.06;6216776;23;20473;-75
2022/03/26 03:00:15;;;;;;;133.20;68.18;;;;;;;3.63;100.00;103195.22;6190586;23;20013;-74
2022/03/26 03:02:45;;;;;;;137.05;69.00;;;;;;;3.61;100.00;103202.03;6210366;23;20020;-75
2022/03/26 03:05:14;;;;;;;138.25;69.47;;;;;;;3.60;100.00;103202.84;6204681;23;20028;-74
2022/03/26 03:07:42;;;;;;;142.70;71.32;;;;;;;3.59;100.00;103192.28;6181059;23;20029;-74
2022/03/26 03:10:15;;;;;;;146.60;70.40;;;;;;;3.56;100.00;103185.16;6189562;23;20219;-73
2022/03/26 03:12:45;;;;;;;136.30;68.20;;;;;;;3.54;100.00;103197.19;6215712;23;20017;-73
2022/03/26 03:15:19;;;;;;;111.55;55.70;;;;;;;3.53;100.00;103186.66;6214380;23;20142;-73
2022/03/26 03:17:49;;;;;;;138.23;68.43;;;;;;;3.51;100.00;103195.25;6215996;23;20024;-73
2022/03/26 03:20:19;;;;;;;141.45;69.47;;;;;;;3.50;100.00;103203.00;6192883;23;20150;-73
2022/03/26 03:22:48;;;;;;;142.98;70.10;;;;;;;3.47;100.00;103206.28;6185812;23;20016;-73
2022/03/26 03:25:18;;;;;;;139.43;69.05;;;;;;;3.46;100.00;103206.16;6214191;23;20246;-73
2022/03/26 03:27:47;;;;;;;128.90;68.35;;;;;;;3.44;100.00;103208.69;6214875;23;20024;-73
2022/03/26 03:30:15;;;;;;;146.13;71.60;;;;;;;3.43;100.00;103209.47;6214707;23;20017;-73
2022/03/26 03:32:45;;;;;;;148.35;70.35;;;;;;;3.42;100.00;103191.13;6212584;23;20031;-73
2022/03/26 03:35:14;;;;;;;163.27;76.70;;;;;;;3.42;100.00;103184.22;6200515;23;20575;-73
2022/03/26 03:37:42;;;;;;;167.88;78.97;;;;;;;3.42;100.00;103191.13;6184382;23;20028;-73
2022/03/26 03:40:13;;;;;;;166.95;78.65;;;;;;;3.43;100.00;103191.22;6188774;23;20012;-73
2022/03/26 03:42:41;;;;;;;154.80;75.32;;;;;;;3.44;100.00;103200.88;6216036;23;20024;-73
2022/03/26 03:45:10;;;;;;;163.25;76.82;;;;;;;3.44;100.00;103198.25;6215095;23;20020;-73
2022/03/26 03:47:38;;;;;;;164.85;77.15;;;;;;;3.43;100.00;103179.91;6216923;23;20020;-73
2022/03/26 03:50:07;;;;;;;168.25;79.20;;;;;;;3.43;100.00;103186.00;6212861;23;20635;-73
2022/03/26 03:52:36;;;;;;;182.32;81.50;;;;;;;3.42;100.00;103179.00;6199319;23;20025;-73
2022/03/26 03:55:05;;;;;;;169.75;78.60;;;;;;;3.44;100.00;103190.44;6212236;23;20031;-73
2022/03/26 03:57:34;;;;;;;162.45;78.55;;;;;;;3.42;100.00;103189.44;6216731;23;20481;-75
2022/03/26 04:00:03;;;;;;;160.05;78.68;;;;;;;3.42;100.00;103193.72;6211483;23;21133;-73
2022/03/26 04:02:41;;;;;;;157.52;75.15;;;;;;;3.41;100.00;103192.81;6215919;23;20024;-75
2022/03/26 04:05:10;;;;;;;152.68;75.13;;;;;;;3.39;100.00;103193.53;6214638;23;20138;-73
2022/03/26 04:07:44;;;;;;;157.65;75.13;;;;;;;3.36;100.00;103188.97;6200320;23;20043;-73
2022/03/26 04:10:13;;;;;;;149.27;71.13;;;;;;;3.34;100.00;103193.19;6152768;23;20238;-73
2022/03/26 04:12:43;;;;;;;144.38;71.82;;;;;;;3.30;100.00;103199.88;6191037;23;20024;-73
2022/03/26 04:15:13;;;;;;;156.88;73.47;;;;;;;3.29;100.00;103205.91;6178783;23;20021;-73
2022/03/26 04:17:42;;;;;;;159.85;75.05;;;;;;;3.27;100.00;103199.69;6214437;23;20027;-73
2022/03/26 04:20:10;;;;;;;147.57;72.40;;;;;;;3.25;100.00;103202.97;6213122;23;20020;-73
2022/03/26 04:22:39;;;;;;;152.68;75.18;;;;;;;3.24;100.00;103214.19;6202249;23;20021;-73
2022/03/26 04:25:08;;;;;;;160.65;77.53;;;;;;;3.23;100.00;103212.38;6199307;23;20040;-73
2022/03/26 04:27:40;;;;;;;157.93;77.55;;;;;;;3.24;100.00;103214.19;6167210;23;20469;-73
2022/03/26 04:30:10;;;;;;;159.90;76.65;;;;;;;3.24;100.00;103211.59;6213342;23;20016;-75
2022/03/26 04:32:38;;;;;;;162.00;79.07;;;;;;;3.25;100.00;103209.09;6191766;23;20021;-73
2022/03/26 04:35:07;;;;;;;167.20;78.22;;;;;;;3.25;100.00;103215.97;6212648;23;20206;-73
2022/03/26 04:37:36;;;;;;;166.57;79.28;;;;;;;3.23;100.00;103221.13;6192811;23;20020;-73
2022/03/26 04:40:06;;;;;;;171.23;79.40;;;;;;;3.22;100.00;103211.47;6197151;23;20464;-75
2022/03/26 04:42:34;;;;;;;173.60;79.88;;;;;;;3.22;100.00;103214.06;6186855;23;20470;-73
2022/03/26 04:45:03;;;;;;;175.80;86.45;;;;;;;3.23;100.00;103213.31;6188350;23;20152;-75
2022/03/26 04:47:31;;;;;;;166.40;81.47;;;;;;;3.24;100.00;103225.50;6184451;23;20031;-73
2022/03/26 04:50:00;;;;;;;173.85;80.28;;;;;;;3.22;100.00;103227.09;6213387;23;20020;-73
2022/03/26 04:52:28;;;;;;;170.68;81.60;;;;;;;3.24;100.00;103224.63;6220280;23;20016;-73
2022/03/26 04:54:56;;;;;;;170.23;81.68;;;;;;;3.24;100.00;103222.00;6170806;23;20323;-73
2022/03/26 04:57:25;;;;;;;189.43;81.47;;;;;;;3.24;100.00;103220.31;6183868;23;20021;-73
2022/03/26 04:59:53;;;;;;;164.10;79.32;;;;;;;3.24;100.00;103216.81;6189547;23;20013;-73
2022/03/26 05:02:22;;;;;;;164.30;81.32;;;;;;;3.23;100.00;103228.00;6217739;23;20020;-73
2022/03/26 05:04:49;;;;;;;175.60;84.40;;;;;;;3.25;100.00;103229.00;6204795;23;20024;-73
2022/03/26 05:10:05;;;;;;;173.07;80.45;;;;;;;3.24;100.00;103224.63;6199630;23;20025;-74
2022/03/26 05:12:34;;;;;;;164.25;79.32;;;;;;;3.24;100.00;103216.81;6165046;23;20454;-73
2022/03/26 05:15:02;;;;;;;162.25;81.00;;;;;;;3.24;100.00;103235.03;6188635;23;20111;-73
2022/03/26 05:17:31;;;;;;;181.15;81.03;;;;;;;3.27;100.00;103235.25;6219457;23;20446;-73
2022/03/26 05:19:59;;;;;;;189.80;85.18;;;;;;;3.34;100.00;103236.59;6188234;23;20021;-73
2022/03/26 05:22:28;;;;;;;187.43;82.72;;;;;;;3.35;100.00;103236.72;6218761;23;20446;-73
2022/03/26 05:24:56;;;;;;;169.55;82.55;;;;;;;3.35;100.00;103241.91;6188759;23;20016;-74
2022/03/26 05:27:25;;;;;;;171.68;80.47;;;;;;;3.34;100.00;103239.19;6201560;23;20350;-73
2022/03/26 05:29:54;;;;;;;167.13;80.85;;;;;;;3.33;100.00;103248.72;6216679;23;20031;-73
2022/03/26 05:32:22;;;;;;;177.98;83.65;;;;;;;3.33;100.00;103246.13;6218134;23;20019;-73
2022/03/26 05:34:50;;;;;;;166.30;79.63;;;;;;;3.33;100.00;103246.13;6166597;23;20017;-73
2022/03/26 05:37:19;;;;;;;168.38;80.55;;;;;;;3.34;100.00;103247.91;6193260;23;20028;-73
2022/03/26 05:39:47;;;;;;;167.65;80.72;;;;;;;3.36;100.00;103261.06;6217876;23;20024;-74
2022/03/26 05:42:16;;;;;;;213.00;90.53;;;;;;;3.37;100.00;103248.16;6204313;23;20298;-73
2022/03/26 05:44:44;;;;;;;168.02;78.72;;;;;;;3.40;100.00;103252.66;6181308;23;20012;-74
2022/03/26 05:47:13;;;;;;;158.90;78.55;;;;;;;3.43;100.00;103248.56;6192390;23;20016;-73
2022/03/26 05:49:42;;;;;;;179.68;82.57;;;;;;;3.49;100.00;103242.88;6188556;23;20043;-73
2022/03/26 05:52:14;;;;;;;172.73;82.65;;;;;;;3.57;100.00;103254.75;6192589;23;20115;-73
2022/03/26 05:54:43;;;;;;;202.18;91.40;;;;;;;3.63;100.00;103256.88;6205786;23;20023;-74
2022/03/26 05:57:11;;;;;;;182.85;83.97;;;;;;;3.69;100.00;103258.22;6190679;23;20017;-74
2022/03/26 05:59:39;;;;;;;168.75;79.97;;;;;;;3.73;100.00;103272.41;6206551;23;20024;-74
2022/03/26 06:02:11;;;;;;;183.40;84.95;;;;;;;3.76;100.00;103267.38;6180309;23;20013;-74
2022/03/26 06:04:41;;;;;;;181.52;81.82;;;;;;;3.82;100.00;103266.91;6219567;23;20027;-74
2022/03/26 06:07:10;;;;;;;224.97;90.87;;;;;;;3.87;100.00;103274.25;6183027;23;20154;-74
2022/03/26 06:09:39;;;;;;;189.48;84.25;;;;;;;3.95;100.00;103276.47;6207620;23;20237;-74
2022/03/26 06:12:08;;;;;;;201.82;88.30;;;;;;;3.99;100.00;103271.59;6186799;23;20028;-74
2022/03/26 06:14:36;;;;;;;216.38;90.40;;;;;;;4.05;100.00;103272.00;6175509;23;20025;-73
2022/03/26 06:17:05;;;;;;;182.70;83.97;;;;;;;4.14;100.00;103273.44;6150459;23;20374;-73
2022/03/26 06:19:33;;;;;;;181.63;84.60;;;;;;;4.18;100.00;103265.94;6203455;23;20016;-74
2022/03/26 06:22:02;;;;;;;212.52;88.28;;;;;;;4.24;100.00;103266.34;6157874;23;20313;-73
2022/03/26 06:24:30;;;;;;;186.43;82.95;;;;;;;4.27;100.00;103269.16;6190758;23;20021;-74
2022/03/26 06:26:59;;;;;;;169.60;79.00;;;;;;;4.35;100.00;103273.97;6208112;23;20632;-74
2022/03/26 06:29:28;;;;;;;194.18;83.63;;;;;;;4.40;100.00;103273.50;6199996;23;20043;-73
2022/03/26 06:31:56;;;;;;;183.77;83.55;;;;;;;4.46;100.00;103268.69;6197217;23;20010;-73
2022/03/26 06:34:25;;;;;;;175.55;79.28;;;;;;;4.54;100.00;103278.72;6188057;23;20021;-73
2022/03/26 06:36:54;;;;;;;167.77;77.53;;;;;;;4.61;100.00;103275.72;6158538;23;20021;-74
2022/03/26 06:39:22;;;;;;;158.30;72.38;;;;;;;4.66;100.00;103280.47;6187878;23;20021;-73
2022/03/26 06:41:50;;;;;;;158.15;75.15;;;;;;;4.74;100.00;103282.69;6172724;23;20430;-74
2022/03/26 06:44:19;;;;;;;138.50;70.35;;;;;;;4.80;100.00;103284.00;6174313;23;20020;-74
2022/03/26 06:46:50;;;;;;;161.55;76.63;;;;;;;4.87;100.00;103274.84;6184963;23;20032;-74
2022/03/26 06:49:19;;;;;;;166.20;78.32;;;;;;;4.93;100.00;103280.47;6162929;23;20359;-74
2022/03/26 06:51:47;;;;;;;167.85;78.60;;;;;;;5.02;100.00;103267.09;6156662;23;20431;-74
2022/03/26 06:54:17;;;;;;;143.38;76.45;;;;;;;5.12;100.00;103274.72;6209536;23;20017;-74
2022/03/26 06:56:45;;;;;;;174.93;80.78;;;;;;;5.24;100.00;103278.13;6209497;23;20021;-74
2022/03/26 06:59:19;;;;;;;160.82;75.18;;;;;;;5.39;100.00;103272.97;6188478;23;20021;-74
2022/03/26 07:01:47;;;;;;;157.38;76.05;;;;;;;5.59;100.00;103271.59;6170886;23;20458;-74
2022/03/26 07:04:18;;;;;;;141.73;70.60;;;;;;;5.94;100.00;103277.22;6188122;23;20024;-74
2022/03/26 07:06:46;;;;;;;132.27;70.40;;;;;;;6.33;100.00;103264.72;6217943;23;20021;-74
2022/03/26 07:09:15;;;;;;;123.65;68.35;;;;;;;6.79;100.00;103275.31;6197682;23;20020;-74
2022/03/26 07:11:43;;;;;;;122.05;68.88;;;;;;;7.26;100.00;103270.91;6221086;23;20481;-74
2022/03/26 07:14:12;;;;;;;121.68;67.32;;;;;;;7.71;100.00;103279.50;6186650;23;20198;-74
2022/03/26 07:16:40;;;;;;;112.63;62.58;;;;;;;8.15;100.00;103283.59;6208215;23;20016;-74
2022/03/26 07:19:09;;;;;;;95.85;58.65;;;;;;;8.57;100.00;103273.50;6247487;23;20238;-74
2022/03/26 07:21:39;;;;;;;98.40;58.67;;;;;;;8.96;100.00;103282.47;6222391;23;20460;-74
2022/03/26 07:24:07;;;;;;;101.05;58.80;;;;;;;9.11;100.00;103282.31;6195794;23;20225;-74
2022/03/26 07:26:36;;;;;;;99.32;58.22;;;;;;;9.31;100.00;103277.97;6247845;23;20016;-74
2022/03/26 07:29:04;;;;;;;93.38;56.25;;;;;;;9.57;100.00;103286.22;6244201;23;20138;-74
2022/03/26 07:31:33;;;;;;;92.82;56.00;;;;;;;9.93;100.00;103286.06;6150991;23;20484;-74
2022/03/26 07:34:01;;;;;;;85.03;51.58;;;;;;;10.17;100.00;103288.91;6193245;23;20154;-74
2022/03/26 07:36:32;;;;;;;84.63;55.33;;;;;;;10.32;100.00;103292.25;6220696;23;20016;-74
2022/03/26 07:39:00;;;;;;;87.88;53.53;;;;;;;10.47;100.00;103296.34;6217051;23;20273;-74
2022/03/26 07:41:29;;;;;;;82.63;54.78;;;;;;;10.62;100.00;103296.09;6221828;23;20016;-74
2022/03/26 07:43:58;;;;;;;79.13;51.45;;;;;;;10.86;100.00;103301.50;6216327;23;20016;-74
2022/03/26 07:46:26;;;;;;;82.18;52.72;;;;;;;11.04;100.00;103290.78;6207379;23;20024;-74
2022/03/26 07:48:55;;;;;;;86.50;55.78;;;;;;;11.20;100.00;103295.84;6242602;23;20031;-75
2022/03/26 07:51:23;;;;;;;82.53;54.78;;;;;;;11.40;100.00;103295.72;6221524;23;20020;-74
2022/03/26 07:53:51;;;;;;;75.97;50.03;;;;;;;11.63;100.00;103284.31;6216258;23;20438;-74
2022/03/26 07:56:20;;;;;;;79.85;51.33;;;;;;;11.92;100.00;103292.44;6216703;23;20012;-74
2022/03/26 07:58:49;;;;;;;79.05;51.85;;;;;;;12.08;100.00;103300.09;6168036;23;20020;-74
2022/03/26 08:01:20;;;;;;;76.68;51.78;;;;;;;12.30;100.00;103295.56;6172792;23;20016;-74
2022/03/26 08:03:53;;;;;;;69.82;47.83;;;;;;;12.58;100.00;103291.25;6193517;23;20457;-74
2022/03/26 08:06:23;;;;;;;73.03;46.50;;;;;;;12.86;100.00;103296.59;6221032;23;20031;-75
2022/03/26 08:08:52;;;;;;;77.00;51.27;;;;;;;13.15;100.00;103293.09;6242392;23;20016;-75
2022/03/26 08:11:21;;;;;;;76.68;49.15;;;;;;;13.41;100.00;103299.25;6219638;23;20024;-75
2022/03/26 08:13:49;;;;;;;68.15;42.58;;;;;;;13.61;100.00;103300.75;6167251;23;20022;-75
2022/03/26 08:16:18;;;;;;;63.38;42.58;;;;;;;13.86;100.00;103301.47;6219912;23;20437;-75
2022/03/26 08:18:47;;;;;;;63.63;42.72;;;;;;;14.01;100.00;103304.53;6204015;23;20020;-75
2022/03/26 08:21:17;;;;;;;65.32;43.58;;;;;;;14.16;100.00;103305.84;6246219;23;20031;-75
2022/03/26 08:23:46;;;;;;;54.60;39.85;;;;;;;14.26;100.00;103301.69;6244089;23;20031;-75
2022/03/26 08:26:22;;;;;;;63.90;43.85;;;;;;;14.37;100.00;103301.09;6179416;23;20027;-74
2022/03/26 08:28:53;;;;;;;62.92;41.53;;;;;;;14.46;100.00;103299.53;6184740;23;20261;-75
2022/03/26 08:31:23;;;;;;;60.38;43.25;;;;;;;14.58;100.00;103302.56;6241589;23;20020;-74
2022/03/26 08:33:53;;;;;;;52.25;38.63;;;;;;;14.66;100.00;103303.63;6203975;23;20237;-75
2022/03/26 08:36:22;;;;;;;57.55;39.40;;;;;;;14.81;100.00;103301.38;6195935;23;20023;-75
2022/03/26 08:38:51;;;;;;;57.22;39.03;;;;;;;14.91;99.09;103299.81;6194259;23;20158;-74
2022/03/26 08:41:21;;;;;;;58.60;39.28;;;;;;;14.98;97.76;103303.53;6208619;23;20024;-75
2022/03/26 08:43:51;;;;;;;53.28;38.90;;;;;;;15.07;97.96;103301.09;6219213;23;20024;-74
2022/03/26 08:46:21;;;;;;;49.00;35.05;;;;;;;15.18;95.59;103298.72;6229793;23;20026;-74
2022/03/26 08:48:51;;;;;;;47.22;33.63;;;;;;;15.20;93.82;103305.84;6219930;23;20095;-74
2022/03/26 08:51:19;;;;;;;46.83;31.45;;;;;;;15.19;93.33;103298.72;6246856;23;20024;-74
2022/03/26 08:53:48;;;;;;;43.17;31.98;;;;;;;15.16;92.11;103303.97;6216899;23;20214;-74
2022/03/26 08:56:16;;;;;;;41.50;30.80;;;;;;;15.20;92.49;103305.84;6216135;23;20020;-75
2022/03/26 08:58:45;;;;;;;45.25;31.63;;;;;;;15.24;90.60;103304.16;6217279;23;20031;-74
2022/03/26 09:01:13;;;;;;;41.38;27.38;;;;;;;15.20;90.28;103310.28;6167254;23;20146;-74
2022/03/26 09:03:43;;;;;;;33.95;23.08;;;;;;;15.12;87.83;103307.44;6208390;23;20020;-74
2022/03/26 09:06:12;;;;;;;35.20;24.47;;;;;;;15.04;87.18;103313.41;6212304;23;20146;-74
2022/03/26 09:08:40;;;;;;;33.40;24.45;;;;;;;14.99;87.34;103305.34;6246869;23;20735;-74
2022/03/26 09:11:09;;;;;;;29.33;22.65;;;;;;;14.98;86.30;103314.16;6242114;23;20146;-74
2022/03/26 09:13:37;;;;;;;32.65;20.80;;;;;;;14.88;85.40;103314.81;6220498;23;20024;-74
2022/03/26 09:16:05;;;;;;;27.27;18.92;;;;;;;14.69;85.25;103311.69;6211033;23;20023;-74
2022/03/26 09:18:34;;;;;;;30.75;19.40;;;;;;;14.57;86.04;103311.34;6207169;23;20024;-74
2022/03/26 09:21:02;;;;;;;30.33;20.92;;;;;;;14.42;86.11;103304.78;6241164;23;20020;-77
2022/03/26 09:23:33;;;;;;;;;;;;;;;14.31;87.68;103302.66;6212383;23;20057;-76
2022/03/26 09:26:04;;;;;;;30.98;20.42;;;;;;;14.26;86.87;103314.94;6247452;23;19927;-77
2022/03/26 09:28:32;;;;;;;27.55;20.75;;;;;;;14.19;87.35;103305.91;6251321;23;20020;-77
2022/03/26 09:31:01;;;;;;;29.08;20.02;;;;;;;14.09;86.46;103314.47;6192246;23;20024;-77
2022/03/26 09:33:29;;;;;;;24.67;19.08;;;;;;;14.00;87.08;103313.34;6209226;23;20016;-76
2022/03/26 09:35:58;;;;;;;25.83;20.15;;;;;;;13.95;87.28;103314.97;6219156;23;20013;-76
2022/03/26 09:38:27;;;;;;;17.95;14.80;;;;;;;13.89;86.64;103324.50;6246804;23;20031;-76
2022/03/26 09:40:56;;;;;;;22.92;15.93;;;;;;;13.85;86.10;103318.19;6220762;23;20031;-76
2022/03/26 09:43:26;;;;;;;22.13;16.13;;;;;;;13.76;85.26;103324.16;6188979;23;20342;-77
2022/03/26 09:45:55;;;;;;;24.10;16.45;;;;;;;13.66;86.58;103322.06;6191227;23;20016;-76
2022/03/26 09:48:24;;;;;;;22.90;16.52;;;;;;;13.63;86.58;103322.88;6204276;23;20016;-77
2022/03/26 09:50:53;;;;;;;24.25;16.63;;;;;;;13.62;87.15;103326.38;6178715;23;20019;-76
2022/03/26 09:53:22;;;;;;;21.35;14.45;;;;;;;13.61;86.71;103324.59;6244867;23;20072;-77
2022/03/26 09:55:51;;;;;;;18.85;14.23;;;;;;;13.60;87.19;103328.06;6207994;23;20008;-76
2022/03/26 09:58:20;;;;;;;23.30;12.85;;;;;;;13.62;87.69;103321.06;6240980;23;20023;-77
2022/03/26 10:00:53;;;;;;;17.30;11.38;;;;;;;13.67;87.85;103328.25;6219527;23;20028;-77
2022/03/26 10:03:22;;;;;;;19.23;12.27;;;;;;;13.65;87.26;103328.22;6214542;23;20031;-77
2022/03/26 10:06:02;;;;;;;18.42;12.45;;;;;;;13.59;87.26;103334.25;6196607;23;20016;-76
2022/03/26 10:08:38;;;;;;;17.38;11.95;;;;;;;13.56;87.99;103334.13;6218233;23;20028;-77
2022/03/26 10:11:20;;;;;;;16.83;12.35;;;;;;;13.60;87.69;103338.69;6194107;23;20208;-77
2022/03/26 10:13:49;;;;;;;13.25;10.98;;;;;;;13.63;86.90;103335.25;6194191;23;20020;-77
2022/03/26 10:16:19;;;;;;;16.67;10.43;;;;;;;13.63;86.42;103336.13;6222001;23;20437;-77
2022/03/26 10:18:48;;;;;;;10.03;8.93;;;;;;;13.65;86.50;103329.13;6242509;23;20020;-76
2022/03/26 10:21:19;;;;;;;11.63;8.40;;;;;;;13.67;86.11;103331.81;6206092;23;20251;-78
2022/03/26 10:23:54;;;;;;;12.80;9.63;;;;;;;13.70;85.66;103333.66;6241394;23;20015;-77
2022/03/26 10:26:23;;;;;;;11.00;7.00;;;;;;;13.76;85.55;103336.47;6188597;23;20016;-77
2022/03/26 10:28:54;;;;;;;10.40;7.75;;;;;;;13.75;85.36;103332.06;6159346;23;20012;-76
2022/03/26 10:34:19;;;;;;;11.82;7.40;;;;;;;13.86;85.50;103330.63;6219021;23;20463;-78
2022/03/26 10:36:57;;;;;;;10.20;6.00;;;;;;;13.89;83.95;103333.34;6204698;23;20217;-77
2022/03/26 10:39:28;;;;;;;6.97;5.63;;;;;;;13.92;83.64;103325.47;6190107;23;20020;-78
2022/03/26 10:41:57;;;;;;;9.05;5.70;;;;;;;13.96;83.89;103330.00;6194631;23;20019;-81
2022/03/26 10:44:28;;;;;;;8.13;6.22;;;;;;;14.04;84.16;103333.81;6182034;23;20031;-77
2022/03/26 10:46:59;;;;;;;7.78;5.70;;;;;;;14.07;83.07;103327.69;6245009;23;20020;-77
2022/03/26 10:49:29;;;;;;;6.60;4.88;;;;;;;14.09;83.50;103325.97;6245484;23;20322;-77
2022/03/26 10:52:04;;;;;;;8.50;6.15;;;;;;;14.20;83.20;103324.50;6208610;23;20027;-76
2022/03/26 10:54:33;;;;;;;6.88;4.82;;;;;;;14.38;82.98;103315.25;6244121;23;20242;-77
2022/03/26 10:57:02;;;;;;;8.15;5.80;;;;;;;14.49;82.03;103326.16;6194575;23;20023;-77
2022/03/26 10:59:32;;;;;;;7.90;5.68;;;;;;;14.50;81.91;103320.91;6184515;23;20297;-76
2022/03/26 11:02:01;;;;;;;9.23;4.72;;;;;;;14.51;81.30;103320.03;6194428;23;20007;-77
2022/03/26 11:04:30;;;;;;;7.30;5.70;;;;;;;14.50;81.60;103333.25;6217735;23;20023;-77
2022/03/26 11:06:58;;;;;;;8.55;5.38;;;;;;;14.44;81.95;103326.00;6201773;23;20016;-76
2022/03/26 11:09:27;;;;;;;6.07;5.45;;;;;;;14.42;81.06;103322.44;6183484;23;20024;-77
2022/03/26 11:11:58;;;;;;;8.65;6.07;;;;;;;14.40;81.33;103330.38;6243215;23;20016;-76
2022/03/26 11:14:37;;;;;;;9.85;5.60;;;;;;;14.38;81.34;103329.41;6244662;23;20028;-76
2022/03/26 11:17:12;;;;;;;7.00;5.22;;;;;;;14.35;80.76;103325.78;6221813;23;20016;-77
2022/03/26 11:20:26;;;;;;;6.90;5.72;;;;;;;14.29;82.44;103325.59;6214211;23;20237;-77